createdAt,value
2018-12-02T00:00:54.625Z,80.70
2018-12-02T00:03:23.699Z,81.40
2018-12-02T00:05:53.301Z,81.90
2018-12-02T00:08:22.289Z,82.30
2018-12-02T00:10:51.436Z,83.00
2018-12-02T00:13:20.434Z,83.90
2018-12-02T00:15:49.580Z,85.20
2018-12-02T00:18:18.559Z,86.30
2018-12-02T00:20:47.554Z,86.90
2018-12-02T00:23:16.593Z,87.40
2018-12-02T00:25:45.572Z,88.00
2018-12-02T00:28:14.556Z,88.20
2018-12-02T00:30:43.596Z,89.20
2018-12-02T00:33:12.562Z,89.50
2018-12-02T00:35:41.598Z,89.50
2018-12-02T00:38:10.607Z,89.90
2018-12-02T00:40:39.590Z,90.10
2018-12-02T00:43:08.950Z,90.30
2018-12-02T00:45:38.515Z,90.60
2018-12-02T00:48:08.850Z,90.80
2018-12-02T00:50:38.846Z,90.90
2018-12-02T00:53:09.429Z,91.30
2018-12-02T00:55:40.878Z,91.30
2018-12-02T00:58:09.853Z,91.40
2018-12-02T01:00:39.449Z,91.60
2018-12-02T01:03:09.592Z,91.90
2018-12-02T01:05:38.563Z,92.00
2018-12-02T01:08:08.065Z,92.20
2018-12-02T01:10:37.656Z,92.30
2018-12-02T01:13:08.991Z,92.40
2018-12-02T01:15:38.635Z,92.50
2018-12-02T01:18:08.109Z,92.70
2018-12-02T01:20:37.956Z,92.90
2018-12-02T01:23:07.363Z,93.10
2018-12-02T01:25:37.248Z,93.40
2018-12-02T01:28:06.771Z,93.50
2018-12-02T01:30:35.846Z,93.60
2018-12-02T01:33:04.943Z,93.50
2018-12-02T01:35:34.024Z,93.50
2018-12-02T01:38:03.092Z,93.40
2018-12-02T01:40:32.096Z,93.60
2018-12-02T01:43:01.091Z,93.70
2018-12-02T01:45:30.098Z,93.70
2018-12-02T01:47:59.063Z,93.70
2018-12-02T01:50:28.064Z,93.80
2018-12-02T01:52:57.594Z,93.80
2018-12-02T01:55:26.603Z,93.80
2018-12-02T01:57:55.594Z,93.90
2018-12-02T02:00:28.872Z,94.00
2018-12-02T02:02:58.216Z,93.90
2018-12-02T02:05:27.603Z,93.80
2018-12-02T02:07:56.636Z,93.90
2018-12-02T02:10:27.608Z,94.10
2018-12-02T02:12:56.668Z,94.00
2018-12-02T02:15:25.794Z,94.10
2018-12-02T02:17:54.961Z,94.00
2018-12-02T02:20:25.601Z,94.00
2018-12-02T02:22:54.664Z,94.20
2018-12-02T02:25:24.364Z,94.20
2018-12-02T02:27:54.940Z,94.20
2018-12-02T02:30:24.955Z,94.20
2018-12-02T02:32:54.129Z,94.30
2018-12-02T02:35:23.304Z,94.30
2018-12-02T02:37:53.535Z,94.40
2018-12-02T02:40:24.630Z,94.30
2018-12-02T02:42:53.657Z,94.20
2018-12-02T02:45:22.692Z,94.30
2018-12-02T02:47:51.685Z,94.30
2018-12-02T02:50:21.663Z,94.50
2018-12-02T02:52:52.678Z,94.40
2018-12-02T02:55:21.651Z,94.40
2018-12-02T02:57:50.666Z,94.60
2018-12-02T03:00:20.677Z,94.60
2018-12-02T03:02:49.677Z,94.60
2018-12-02T03:05:18.763Z,94.60
2018-12-02T03:07:47.783Z,94.40
2018-12-02T03:10:19.966Z,94.60
2018-12-02T03:12:50.647Z,94.60
2018-12-02T03:15:20.434Z,94.60
2018-12-02T03:17:50.210Z,94.60
2018-12-02T03:20:20.910Z,94.60
2018-12-02T03:22:51.821Z,94.60
2018-12-02T03:25:21.700Z,94.60
2018-12-02T03:27:50.653Z,94.70
2018-12-02T03:30:20.614Z,94.70
2018-12-02T03:32:49.786Z,94.70
2018-12-02T03:35:20.744Z,94.70
2018-12-02T03:37:49.790Z,94.70
2018-12-02T03:40:22.398Z,94.70
2018-12-02T03:42:52.005Z,94.70
2018-12-02T03:45:23.096Z,94.70
2018-12-02T03:47:52.132Z,94.80
2018-12-02T03:50:22.124Z,94.80
2018-12-02T03:52:51.119Z,94.80
2018-12-02T03:55:20.160Z,94.80
2018-12-02T03:57:49.125Z,94.80
2018-12-02T04:00:20.854Z,95.00
2018-12-02T04:02:50.047Z,95.30
2018-12-02T04:05:20.169Z,95.10
2018-12-02T04:07:49.256Z,95.20
2018-12-02T04:10:18.871Z,94.90
2018-12-02T04:12:48.916Z,95.20
2018-12-02T04:15:18.963Z,95.20
2018-12-02T04:17:47.982Z,95.30
2018-12-02T04:20:17.799Z,95.30
2018-12-02T04:22:48.000Z,95.40
2018-12-02T04:25:24.160Z,95.40
2018-12-02T04:27:53.342Z,95.40
2018-12-02T04:30:23.263Z,95.40
2018-12-02T04:32:53.021Z,95.50
2018-12-02T04:35:24.063Z,95.50
2018-12-02T04:37:53.175Z,95.60
2018-12-02T04:40:22.282Z,95.60
2018-12-02T04:42:51.232Z,95.90
2018-12-02T04:45:20.813Z,95.60
2018-12-02T04:47:49.950Z,95.60
2018-12-02T04:50:22.044Z,95.50
2018-12-02T04:52:51.037Z,95.50
2018-12-02T04:55:19.980Z,95.50
2018-12-02T04:57:49.039Z,95.50
2018-12-02T05:00:18.956Z,95.70
2018-12-02T05:02:51.691Z,95.70
2018-12-02T05:05:24.519Z,95.80
2018-12-02T05:07:53.953Z,95.70
2018-12-02T05:10:23.006Z,95.80
2018-12-02T05:12:52.300Z,95.90
2018-12-02T05:15:22.048Z,95.80
2018-12-02T05:17:50.951Z,95.70
2018-12-02T05:20:21.585Z,95.70
2018-12-02T05:22:50.616Z,95.80
2018-12-02T05:25:19.877Z,95.70
2018-12-02T05:27:48.787Z,95.80
2018-12-02T05:30:21.680Z,95.80
2018-12-02T05:32:53.361Z,96.10
2018-12-02T05:35:22.473Z,96.20
2018-12-02T05:37:51.385Z,96.30
2018-12-02T05:40:21.368Z,96.30
2018-12-02T05:42:50.406Z,96.40
2018-12-02T05:45:19.638Z,96.40
2018-12-02T05:47:48.664Z,96.40
2018-12-02T05:50:22.412Z,96.50
2018-12-02T05:52:56.493Z,96.40
2018-12-02T05:55:26.649Z,96.40
2018-12-02T05:57:55.561Z,96.30
2018-12-02T06:00:24.598Z,96.30
2018-12-02T06:02:53.582Z,96.30
2018-12-02T06:05:22.590Z,96.30
2018-12-02T06:07:51.586Z,96.40
2018-12-02T06:10:21.522Z,96.70
2018-12-02T06:12:50.643Z,96.40
2018-12-02T06:15:21.138Z,96.40
2018-12-02T06:17:50.129Z,96.50
2018-12-02T06:20:25.496Z,96.50
2018-12-02T06:22:56.372Z,96.40
2018-12-02T06:25:25.579Z,96.50
2018-12-02T06:27:54.630Z,96.40
2018-12-02T06:30:26.299Z,96.60
2018-12-02T06:32:57.310Z,96.50
2018-12-02T06:35:26.384Z,96.50
2018-12-02T06:37:56.272Z,96.70
2018-12-02T06:40:27.157Z,96.50
2018-12-02T06:42:56.094Z,96.50
2018-12-02T06:45:25.155Z,96.50
2018-12-02T06:47:54.240Z,96.60
2018-12-02T06:50:24.228Z,96.60
2018-12-02T06:52:53.899Z,96.70
2018-12-02T06:55:35.838Z,96.70
2018-12-02T06:58:44.513Z,96.70
2018-12-02T07:01:38.018Z,96.60
2018-12-02T07:04:40.918Z,96.60
2018-12-02T07:07:09.946Z,96.70
2018-12-02T07:09:38.920Z,96.70
2018-12-02T07:12:08.004Z,96.80
2018-12-02T07:14:36.976Z,96.80
2018-12-02T07:17:06.047Z,96.60
2018-12-02T07:19:37.616Z,96.60
2018-12-02T07:22:11.368Z,96.60
2018-12-02T07:24:41.594Z,96.50
2018-12-02T07:27:12.254Z,96.40
2018-12-02T07:29:41.272Z,96.40
2018-12-02T07:32:10.251Z,96.50
2018-12-02T07:34:39.244Z,96.20
2018-12-02T07:37:13.981Z,96.20
2018-12-02T07:39:58.155Z,96.20
2018-12-02T07:42:27.206Z,96.20
2018-12-02T07:44:56.792Z,95.90
2018-12-02T07:47:25.751Z,95.90
2018-12-02T07:49:54.849Z,96.00
2018-12-02T07:52:23.809Z,95.70
2018-12-02T07:54:52.803Z,96.00
2018-12-02T07:57:21.827Z,95.90
2018-12-02T07:59:51.089Z,95.60
2018-12-02T08:02:20.125Z,95.70
2018-12-02T08:04:49.129Z,95.60
2018-12-02T08:07:18.075Z,95.60
2018-12-02T08:09:47.201Z,95.50
2018-12-02T08:12:16.141Z,95.40
2018-12-02T08:14:45.094Z,95.20
2018-12-02T08:17:14.034Z,95.20
2018-12-02T08:19:43.190Z,95.10
2018-12-02T08:22:12.235Z,95.10
2018-12-02T08:24:41.191Z,95.10
2018-12-02T08:27:10.350Z,95.10
2018-12-02T08:29:39.307Z,95.00
2018-12-02T08:32:08.232Z,94.90
2018-12-02T08:34:37.840Z,94.90
2018-12-02T08:37:06.854Z,94.80
2018-12-02T08:39:35.798Z,94.80
2018-12-02T08:42:05.489Z,94.80
2018-12-02T08:44:34.441Z,94.70
2018-12-02T08:47:03.390Z,94.50
2018-12-02T08:49:32.368Z,94.30
2018-12-02T08:52:02.305Z,94.40
2018-12-02T08:54:31.256Z,94.40
2018-12-02T08:57:00.231Z,94.30
2018-12-02T08:59:29.254Z,94.40
2018-12-02T09:01:58.173Z,94.20
2018-12-02T09:04:27.195Z,94.10
2018-12-02T09:06:56.087Z,93.90
2018-12-02T09:09:25.065Z,93.90
2018-12-02T09:11:54.069Z,93.60
2018-12-02T09:14:23.016Z,93.30
2018-12-02T09:16:51.940Z,93.20
2018-12-02T09:19:20.898Z,93.20
2018-12-02T09:21:49.846Z,93.20
2018-12-02T09:24:18.815Z,93.20
2018-12-02T09:26:47.800Z,93.00
2018-12-02T09:29:16.942Z,92.90
2018-12-02T09:31:45.871Z,92.90
2018-12-02T09:34:14.849Z,92.70
2018-12-02T09:36:43.812Z,92.80
2018-12-02T09:39:18.248Z,92.50
2018-12-02T09:41:41.792Z,92.30
2018-12-02T09:44:10.781Z,92.30
2018-12-02T09:46:39.708Z,92.30
2018-12-02T09:49:08.671Z,91.70
2018-12-02T09:51:37.650Z,91.70
2018-12-02T09:54:06.819Z,91.70
2018-12-02T09:56:35.814Z,91.90
2018-12-02T09:59:04.791Z,91.40
2018-12-02T10:01:33.716Z,91.10
2018-12-02T10:04:02.688Z,90.90
2018-12-02T10:06:31.682Z,90.70
2018-12-02T10:09:00.653Z,90.60
2018-12-02T10:11:29.635Z,90.30
2018-12-02T10:13:58.547Z,90.30
2018-12-02T10:16:27.497Z,90.30
2018-12-02T10:18:56.526Z,90.20
2018-12-02T10:21:25.509Z,90.00
2018-12-02T10:23:54.547Z,89.50
2018-12-02T10:26:23.582Z,89.50
2018-12-02T10:28:54.440Z,89.40
2018-12-02T10:31:23.548Z,89.60
2018-12-02T10:33:52.588Z,89.50
2018-12-02T10:36:21.528Z,89.30
2018-12-02T10:38:50.529Z,89.10
2018-12-02T10:41:19.507Z,88.80
2018-12-02T10:43:48.491Z,88.40
2018-12-02T10:46:17.454Z,87.60
2018-12-02T10:48:46.494Z,86.90
2018-12-02T10:51:15.463Z,86.70
2018-12-02T10:53:44.499Z,85.60
2018-12-02T10:56:13.563Z,85.30
2018-12-02T10:58:42.530Z,85.10
2018-12-02T11:01:18.243Z,85.00
2018-12-02T11:03:48.022Z,85.00
2018-12-02T11:06:17.023Z,85.20
2018-12-02T11:08:47.035Z,85.60
2018-12-02T11:11:16.604Z,85.70
2018-12-02T11:13:45.583Z,86.30
2018-12-02T11:16:14.529Z,86.50
2018-12-02T11:18:43.488Z,87.30
2018-12-02T11:21:12.467Z,87.50
2018-12-02T11:23:41.515Z,87.60
2018-12-02T11:26:10.485Z,86.90
2018-12-02T11:28:39.500Z,86.50
2018-12-02T11:31:08.574Z,86.40
2018-12-02T11:33:37.692Z,85.70
2018-12-02T11:36:06.756Z,85.10
2018-12-02T11:38:35.740Z,84.80
2018-12-02T11:41:04.775Z,84.10
2018-12-02T11:43:33.726Z,83.60
2018-12-02T11:46:02.719Z,82.30
2018-12-02T11:48:31.689Z,81.90
2018-12-02T11:51:00.675Z,81.20
2018-12-02T11:53:29.644Z,80.50
2018-12-02T11:55:58.582Z,79.90
2018-12-02T11:58:27.626Z,79.70
2018-12-02T12:00:56.583Z,79.30
2018-12-02T12:03:25.639Z,78.80
2018-12-02T12:05:54.585Z,78.50
2018-12-02T12:08:23.561Z,78.30
2018-12-02T12:10:53.496Z,77.90
2018-12-02T12:13:23.460Z,77.40
2018-12-02T12:15:52.620Z,77.30
2018-12-02T12:18:21.660Z,76.80
2018-12-02T12:20:50.604Z,76.60
2018-12-02T12:23:21.675Z,77.50
2018-12-02T12:25:50.667Z,77.10
2018-12-02T12:28:19.612Z,77.10
2018-12-02T12:30:48.647Z,77.60
2018-12-02T12:33:17.649Z,77.10
2018-12-02T12:35:49.219Z,77.10
2018-12-02T12:38:18.309Z,77.30
2018-12-02T12:40:49.037Z,77.70
2018-12-02T12:43:26.656Z,77.70
2018-12-02T12:45:55.717Z,78.10
2018-12-02T12:48:24.667Z,78.30
2018-12-02T12:50:53.578Z,78.60
2018-12-02T12:53:22.588Z,79.10
2018-12-02T12:55:53.037Z,79.10
2018-12-02T12:58:22.045Z,79.40
2018-12-02T13:00:51.155Z,79.70
2018-12-02T13:03:20.094Z,80.00
2018-12-02T13:05:49.184Z,80.40
2018-12-02T13:08:18.108Z,80.20
2018-12-02T13:10:47.056Z,80.10
2018-12-02T13:13:16.044Z,79.90
2018-12-02T13:15:45.037Z,79.80
2018-12-02T13:18:14.012Z,79.80
2018-12-02T13:20:45.443Z,80.30
2018-12-02T13:23:14.386Z,80.30
2018-12-02T13:25:43.352Z,80.70
2018-12-02T13:28:12.324Z,81.40
2018-12-02T13:30:41.436Z,82.10
2018-12-02T13:33:10.378Z,82.30
2018-12-02T13:35:40.204Z,82.60
2018-12-02T13:38:09.274Z,82.60
2018-12-02T13:40:39.548Z,82.90
2018-12-02T13:43:15.211Z,83.30
2018-12-02T13:45:44.360Z,83.60
2018-12-02T13:48:13.284Z,83.70
2018-12-02T13:50:42.294Z,83.50
2018-12-02T13:53:11.294Z,83.70
2018-12-02T13:55:40.229Z,83.80
2018-12-02T13:58:09.212Z,84.10
2018-12-02T14:00:39.614Z,84.30
2018-12-02T14:03:11.801Z,84.80
2018-12-02T14:05:45.970Z,84.60
2018-12-02T14:08:15.049Z,84.60
2018-12-02T14:10:44.544Z,84.80
2018-12-02T14:13:18.066Z,85.90
2018-12-02T14:17:56.469Z,85.30
2018-12-02T14:20:25.456Z,85.20
2018-12-02T14:22:54.364Z,85.30
2018-12-02T14:25:23.293Z,85.60
2018-12-02T14:27:53.577Z,86.20
2018-12-02T14:30:22.894Z,86.50
2018-12-02T14:32:51.809Z,86.30
2018-12-02T14:35:20.771Z,86.10
2018-12-02T14:37:49.770Z,86.10
2018-12-02T14:40:18.920Z,86.10
2018-12-02T14:42:47.903Z,86.30
2018-12-02T14:45:17.664Z,86.50
2018-12-02T14:47:46.576Z,87.00
2018-12-02T14:50:16.545Z,87.70
2018-12-02T14:52:46.965Z,87.10
2018-12-02T14:55:18.165Z,87.90
2018-12-02T14:57:47.108Z,86.70
2018-12-02T15:00:17.144Z,86.90
2018-12-02T15:02:46.199Z,87.30
2018-12-02T15:05:15.352Z,87.80
2018-12-02T15:07:44.951Z,87.70
2018-12-02T15:10:17.075Z,87.00
2018-12-02T15:12:46.978Z,86.80
2018-12-02T15:15:17.078Z,86.60
2018-12-02T15:17:47.245Z,86.00
2018-12-02T15:20:17.606Z,85.70
2018-12-02T15:22:46.563Z,85.50
2018-12-02T15:25:15.601Z,84.40
2018-12-02T15:27:45.197Z,84.30
2018-12-02T15:30:16.879Z,84.30
2018-12-02T15:32:49.620Z,84.20
2018-12-02T15:35:18.680Z,84.20
2018-12-02T15:37:47.603Z,84.20
2018-12-02T15:40:17.620Z,84.10
2018-12-02T15:42:48.711Z,83.90
2018-12-02T15:45:17.987Z,83.30
2018-12-02T15:47:46.943Z,83.30
2018-12-02T15:50:23.601Z,83.10
2018-12-02T15:52:52.902Z,82.60
2018-12-02T15:55:26.113Z,82.50
2018-12-02T15:57:55.097Z,82.10
2018-12-02T16:00:27.141Z,82.70
2018-12-02T16:02:56.095Z,82.10
2018-12-02T16:05:25.135Z,82.30
2018-12-02T16:07:54.119Z,82.20
2018-12-02T16:10:23.056Z,82.40
2018-12-02T16:12:53.058Z,82.70
2018-12-02T16:15:25.045Z,81.60
2018-12-02T16:17:54.050Z,81.90
2018-12-02T16:20:26.778Z,81.40
2018-12-02T16:22:55.759Z,81.20
2018-12-02T16:25:24.670Z,80.80
2018-12-02T16:27:53.626Z,81.10
2018-12-02T16:30:22.589Z,80.60
2018-12-02T16:32:55.102Z,80.60
2018-12-02T16:35:26.025Z,80.30
2018-12-02T16:37:56.288Z,79.60
2018-12-02T16:40:26.198Z,79.20
2018-12-02T16:42:56.442Z,79.10
2018-12-02T16:45:25.418Z,79.30
2018-12-02T16:47:56.700Z,80.10
2018-12-02T16:50:30.030Z,80.20
2018-12-02T16:53:02.624Z,80.50
2018-12-02T16:55:34.177Z,80.40
2018-12-02T16:58:09.311Z,80.30
2018-12-02T17:00:49.243Z,80.20
2018-12-02T17:03:18.205Z,79.60
2018-12-02T17:05:47.179Z,79.40
2018-12-02T17:08:16.134Z,79.50
2018-12-02T17:10:50.380Z,79.60
2018-12-02T17:13:14.036Z,79.70
2018-12-02T17:15:42.956Z,79.70
2018-12-02T17:18:11.896Z,79.60
2018-12-02T17:20:40.792Z,80.10
2018-12-02T17:23:09.758Z,80.40
2018-12-02T17:25:38.766Z,80.30
2018-12-02T17:28:07.712Z,79.60
2018-12-02T17:30:42.106Z,80.10
2018-12-02T17:33:11.576Z,79.60
2018-12-02T17:35:40.524Z,79.20
2018-12-02T17:38:09.614Z,79.50
2018-12-02T17:40:38.567Z,79.40
2018-12-02T17:43:09.921Z,80.30
2018-12-02T17:45:38.874Z,79.30
2018-12-02T17:48:07.933Z,79.40
2018-12-02T17:50:37.487Z,79.30
2018-12-02T17:53:09.031Z,79.10
2018-12-02T17:55:51.730Z,78.90
2018-12-02T17:58:20.700Z,78.90
2018-12-02T18:00:49.725Z,78.70
2018-12-02T18:03:23.999Z,79.70
2018-12-02T18:05:53.088Z,79.30
2018-12-02T18:08:22.113Z,78.50
2018-12-02T18:10:51.180Z,78.60
2018-12-02T18:13:20.308Z,78.50
2018-12-02T18:15:49.385Z,78.10
2018-12-02T18:18:18.353Z,78.10
2018-12-02T18:20:47.394Z,77.80
2018-12-02T18:23:16.341Z,78.50
2018-12-02T18:25:45.330Z,78.20
2018-12-02T18:28:14.350Z,77.90
2018-12-02T18:30:43.363Z,78.20
2018-12-02T18:33:12.955Z,77.80
2018-12-02T18:35:49.276Z,78.50
2018-12-02T18:38:19.801Z,78.20
2018-12-02T18:40:54.173Z,78.20
2018-12-02T18:43:23.390Z,77.60
2018-12-02T18:45:52.321Z,77.20
2018-12-02T18:48:21.322Z,76.90
2018-12-02T18:50:50.266Z,76.50
2018-12-02T18:53:19.202Z,76.40
2018-12-02T18:55:48.167Z,76.10
2018-12-02T18:58:17.171Z,75.60
2018-12-02T19:00:47.617Z,75.60
2018-12-02T19:03:19.285Z,75.40
2018-12-02T19:05:49.627Z,75.00
2018-12-02T19:08:18.640Z,75.60
2018-12-02T19:10:50.856Z,74.60
2018-12-02T19:13:19.835Z,74.70
2018-12-02T19:15:48.821Z,74.50
2018-12-02T19:18:17.824Z,74.50
2018-12-02T19:20:47.456Z,74.00
2018-12-02T19:23:18.581Z,74.40
2018-12-02T19:25:47.656Z,74.80
2018-12-02T19:28:16.699Z,74.50
2018-12-02T19:30:45.646Z,74.80
2018-12-02T19:33:18.052Z,74.80
2018-12-02T19:35:47.043Z,75.10
2018-12-02T19:38:19.581Z,75.00
2018-12-02T19:40:48.587Z,75.10
2018-12-02T19:43:17.582Z,74.90
2018-12-02T19:45:48.075Z,74.80
2018-12-02T19:48:17.061Z,74.80
2018-12-02T19:50:46.165Z,74.90
2018-12-02T19:53:15.096Z,74.60
2018-12-02T19:55:44.017Z,75.20
2018-12-02T19:58:13.860Z,75.00
2018-12-02T20:00:44.565Z,75.30
2018-12-02T20:03:14.603Z,75.80
2018-12-02T20:05:44.135Z,75.40
2018-12-02T20:08:14.043Z,75.70
2018-12-02T20:10:44.841Z,75.70
2018-12-02T20:13:15.012Z,75.80
2018-12-02T20:15:49.418Z,76.00
2018-12-02T20:18:18.340Z,76.20
2018-12-02T20:20:51.803Z,77.00
2018-12-02T20:25:28.964Z,77.50
2018-12-02T20:28:03.145Z,78.30
2018-12-02T20:30:33.449Z,80.20
2018-12-02T20:33:02.411Z,81.90
2018-12-02T20:35:31.429Z,81.30
2018-12-02T20:38:01.013Z,82.70
2018-12-02T20:40:29.971Z,82.70
2018-12-02T20:42:58.919Z,83.80
2018-12-02T20:45:27.870Z,84.10
2018-12-02T20:47:56.966Z,85.10
2018-12-02T20:50:25.959Z,86.10
2018-12-02T20:52:54.861Z,86.90
2018-12-02T20:55:25.208Z,87.80
2018-12-02T20:57:55.988Z,88.30
2018-12-02T21:00:24.947Z,88.00
2018-12-02T21:02:55.685Z,90.00
2018-12-02T21:05:34.970Z,90.00
2018-12-02T21:08:03.921Z,90.80
2018-12-02T21:10:32.860Z,90.80
2018-12-02T21:13:01.965Z,91.50
2018-12-02T21:15:30.969Z,91.60
2018-12-02T21:18:00.190Z,91.80
2018-12-02T21:20:29.652Z,92.00
2018-12-02T21:22:58.916Z,92.50
2018-12-02T21:25:28.154Z,92.60
2018-12-02T21:27:57.202Z,93.20
2018-12-02T21:30:27.637Z,93.30
2018-12-02T21:32:58.111Z,93.40
2018-12-02T21:35:27.004Z,93.40
2018-12-02T21:37:56.750Z,93.60
2018-12-02T21:40:25.730Z,93.40
2018-12-02T21:42:54.686Z,94.00
2018-12-02T21:45:23.623Z,94.10
2018-12-02T21:47:54.811Z,94.00
2018-12-02T21:50:26.160Z,94.40
2018-12-02T21:52:55.622Z,94.30
2018-12-02T21:55:24.563Z,94.40
2018-12-02T21:57:53.624Z,94.60
2018-12-02T22:00:27.698Z,94.70
2018-12-02T22:02:56.652Z,95.20
2018-12-02T22:05:25.652Z,94.80
2018-12-02T22:07:54.741Z,94.90
2018-12-02T22:10:30.061Z,94.80
2018-12-02T22:12:58.227Z,95.10
2018-12-02T22:15:27.281Z,95.20
2018-12-02T22:17:56.261Z,95.00
2018-12-02T22:20:25.263Z,95.20
2018-12-02T22:22:54.195Z,95.20
2018-12-02T22:25:24.102Z,95.30
2018-12-02T22:27:55.515Z,95.20
2018-12-02T22:30:25.230Z,95.20
2018-12-02T22:32:54.268Z,95.10
2018-12-02T22:35:23.296Z,95.50
2018-12-02T22:37:52.265Z,95.20
2018-12-02T22:40:23.186Z,95.30
2018-12-02T22:42:53.203Z,95.60
2018-12-02T22:45:25.523Z,95.60
2018-12-02T22:47:54.538Z,95.50
2018-12-02T22:50:24.785Z,95.70
2018-12-02T22:52:54.946Z,95.80
2018-12-02T22:55:23.884Z,95.90
2018-12-02T22:57:52.853Z,95.90
2018-12-02T23:00:33.993Z,95.80
2018-12-02T23:03:10.051Z,95.90
2018-12-02T23:05:39.566Z,96.00
2018-12-02T23:08:08.556Z,95.80
2018-12-02T23:10:37.644Z,95.90
2018-12-02T23:13:07.872Z,95.90
2018-12-02T23:15:37.162Z,95.90
2018-12-02T23:18:07.376Z,96.00
2018-12-02T23:20:36.362Z,96.10
2018-12-02T23:23:05.404Z,96.00
2018-12-02T23:25:34.424Z,96.00
2018-12-02T23:28:03.346Z,96.00
2018-12-02T23:30:32.288Z,95.90
2018-12-02T23:33:01.246Z,96.00
2018-12-02T23:35:30.198Z,96.10
2018-12-02T23:37:59.156Z,96.00
2018-12-02T23:40:28.090Z,96.00
2018-12-02T23:42:57.054Z,96.00
2018-12-02T23:45:25.977Z,96.00
2018-12-02T23:47:54.930Z,96.00
2018-12-02T23:50:24.638Z,96.00
2018-12-02T23:52:53.646Z,96.20
2018-12-02T23:55:22.975Z,96.30
2018-12-02T23:57:51.924Z,96.40
